Airfield :
LOGIN :

Register | Disclaimer

   EN    FR    IT 

 










Legend :    VFR   Marginal VFR   IFR   Intensive IFR   Very Intensive IFR
Visi :
Ceiling :
>= 8 km
>= 3000ft
5 to 8 km
1000 to 3000 ft
1500m to 5 km
500 to 1000 ft
800 to 1500m
200 to 500 ft
< 800m
< 200 ft
Symbols :   Thunderstorms  Fog  Heavy snow  Heavy precipitations  Wind > 20 kt
SIGMETs :     Misc.  Thunderstorms  Icing  Turbulence  Mountain Waves  Volcanic Ashes






- Airport Elevation : 392 ft
- IATA code : CDG


LFPG - Paris-Aeroport Charles De Gaulle

CURRENT METAR :
  • 232300Z 05007KT CAVOK 21/14 Q1008 NOSIG

EXPIRED METARs :
  • 232230Z 08006KT CAVOK 22/14 Q1009 NOSIG
  • 232200Z 07007KT CAVOK 23/14 Q1008 NOSIG
  • 232130Z 08009KT CAVOK 23/14 Q1008 NOSIG
  • 232100Z 06010KT CAVOK 24/14 Q1008 NOSIG
  • 232030Z 06008KT CAVOK 24/14 Q1009 NOSIG

TAF TAF LFPG
Valid from the 23 at 18:00 until the 25 at 00:00 UTC


231700Z 2318/2424 09012KT CAVOK TX28/2318Z TN19/2500Z
PROB40
TEMPO 2320/2405 04010G25KT 4000 SHRA BKN050TCU
PROB40
TEMPO 2320/2405 2500 TSRAGR BKN040CB
PROB40
TEMPO 2401/2404 20015G35KT
BECMG 2405/2407 24010KT
PROB40
TEMPO 2413/2421 23010G25KT SCT040TCU
PROB30
TEMPO 2413/2418 4000 TSRA BKN040CB
ATIS : +33 1 48 62 10 92



MET'MAP, your aeronautical weather chart ! - Copyright ORBIFLY December 2007 - Disclaimer

ORBIFLY MET'MAP TEAM :

Programming & Development : Alexandra Zaïnal
Concept & original design : Baudouin d'Aumeries
Assistance for programming : Marc-Olivier Méhu
Technical & hardware support : Manuel Goepfert

Contact : metmap@orbifly.com




SOURCES & CREDITS :

   NOAA